Time;durP1;ratioP1;P1;durP2;ratioP2;P2;SDS_P1;SDS_P2;PMS_P1;PMS_P2;Temp;Humidity;BMP_temperature;BMP_pressure;BME280_temperature;BME280_humidity;BME280_pressure;Samples;Min_cycle;Max_cycle;Signal;HPM_P1;HPM_P2
2024/03/27 00:01:46;;;;;;;11.13;4.00;;;;;;;;;;5111945;28;20123;-71
2024/03/27 00:04:11;;;;;;;11.95;4.22;;;;;;;;;;5111901;28;20023;-70
2024/03/27 00:06:37;;;;;;;11.10;4.65;;;;;;;;;;5112385;28;20039;-69
2024/03/27 00:09:03;;;;;;;10.30;4.35;;;;;;;;;;5112578;28;20051;-69
2024/03/27 00:11:28;;;;;;;10.50;4.07;;;;;;;;;;5112326;28;20103;-69
2024/03/27 00:13:54;;;;;;;13.00;4.43;;;;;;;;;;5111990;28;20463;-66
2024/03/27 00:16:19;;;;;;;10.82;4.07;;;;;;;;;;5113052;28;20024;-70
2024/03/27 00:18:45;;;;;;;10.07;4.20;;;;;;;;;;5112227;28;20042;-68
2024/03/27 00:21:10;;;;;;;10.38;4.05;;;;;;;;;;5100703;28;20031;-67
2024/03/27 00:23:36;;;;;;;13.18;4.20;;;;;;;;;;5098703;28;20023;-68
2024/03/27 00:26:02;;;;;;;10.13;4.38;;;;;;;;;;5112170;28;20019;-69
2024/03/27 00:28:27;;;;;;;8.93;3.92;;;;;;;;;;5110951;28;20023;-68
2024/03/27 00:30:53;;;;;;;11.70;4.03;;;;;;;;;;5112440;28;20502;-68
2024/03/27 00:33:18;;;;;;;11.95;4.60;;;;;;;;;;5111226;28;20024;-68
2024/03/27 00:35:56;;;;;;;11.23;3.97;;;;;;;;;;5113162;28;20034;-68
2024/03/27 00:38:22;;;;;;;7.60;4.00;;;;;;;;;;5116419;28;20030;-67
2024/03/27 00:40:48;;;;;;;12.02;3.92;;;;;;;;;;5116650;28;20019;-69
2024/03/27 00:43:14;;;;;;;9.30;4.18;;;;;;;;;;5114584;28;20024;-69
2024/03/27 00:45:39;;;;;;;14.10;3.92;;;;;;;;;;5114705;28;20024;-68
2024/03/27 00:48:05;;;;;;;6.28;4.28;;;;;;;;;;5115682;28;20331;-69
2024/03/27 00:50:30;;;;;;;9.70;4.18;;;;;;;;;;5116248;28;20059;-69
2024/03/27 00:52:56;;;;;;;10.80;4.45;;;;;;;;;;5115777;28;20051;-64
2024/03/27 00:55:21;;;;;;;13.48;4.15;;;;;;;;;;5095064;28;20035;-69
2024/03/27 00:57:46;;;;;;;12.65;4.57;;;;;;;;;;5094615;28;20028;-67
2024/03/27 01:00:16;;;;;;;8.95;4.68;;;;;;;;;;5095631;28;20024;-68
2024/03/27 01:02:42;;;;;;;10.18;4.75;;;;;;;;;;5095174;28;20028;-68
2024/03/27 01:05:08;;;;;;;11.02;5.10;;;;;;;;;;5095338;28;20024;-69
2024/03/27 01:07:33;;;;;;;10.43;4.68;;;;;;;;;;5095432;28;20024;-70
2024/03/27 01:09:59;;;;;;;14.35;5.63;;;;;;;;;;5094702;28;20114;-68
2024/03/27 01:12:25;;;;;;;10.43;5.03;;;;;;;;;;5094587;28;20441;-68
2024/03/27 01:14:51;;;;;;;14.50;5.47;;;;;;;;;;5094859;28;20445;-68
2024/03/27 01:17:16;;;;;;;15.10;5.85;;;;;;;;;;5095394;28;20024;-67
2024/03/27 01:19:42;;;;;;;12.07;5.72;;;;;;;;;;5111541;28;20038;-67
2024/03/27 01:22:07;;;;;;;10.40;5.32;;;;;;;;;;5115584;28;20020;-67
2024/03/27 01:24:33;;;;;;;12.25;5.28;;;;;;;;;;5115300;28;20019;-66
2024/03/27 01:26:58;;;;;;;10.55;4.95;;;;;;;;;;5114368;28;20081;-64
2024/03/27 01:29:24;;;;;;;14.27;5.78;;;;;;;;;;5097514;28;20026;-68
2024/03/27 01:31:49;;;;;;;10.30;5.18;;;;;;;;;;5115281;27;20065;-68
2024/03/27 01:34:15;;;;;;;14.13;4.90;;;;;;;;;;5115521;28;20027;-67
2024/03/27 01:36:41;;;;;;;14.27;5.70;;;;;;;;;;5114949;28;20034;-68
2024/03/27 01:39:06;;;;;;;11.55;5.60;;;;;;;;;;5101217;28;20118;-68
2024/03/27 01:41:31;;;;;;;9.48;5.32;;;;;;;;;;5093706;28;20347;-68
2024/03/27 01:43:57;;;;;;;10.52;5.50;;;;;;;;;;5107240;28;20019;-69
2024/03/27 01:46:25;;;;;;;10.55;4.95;;;;;;;;;;5114545;28;20035;-68
2024/03/27 01:48:51;;;;;;;12.00;5.45;;;;;;;;;;5114729;27;20035;-68
2024/03/27 01:51:17;;;;;;;14.23;5.53;;;;;;;;;;5114902;28;20019;-67
2024/03/27 01:53:42;;;;;;;11.45;5.15;;;;;;;;;;5100594;28;20051;-68
2024/03/27 01:56:08;;;;;;;11.65;5.30;;;;;;;;;;5094239;28;20111;-69
2024/03/27 01:58:33;;;;;;;11.05;5.32;;;;;;;;;;5105647;28;20035;-68
2024/03/27 02:00:59;;;;;;;11.68;5.75;;;;;;;;;;5114686;28;20460;-68
2024/03/27 02:03:24;;;;;;;10.10;5.30;;;;;;;;;;5115057;28;20337;-68
2024/03/27 02:05:50;;;;;;;12.27;5.32;;;;;;;;;;5114495;28;20414;-68
2024/03/27 02:08:16;;;;;;;11.50;5.70;;;;;;;;;;5114725;28;20027;-69
2024/03/27 02:10:41;;;;;;;15.27;5.47;;;;;;;;;;5114869;28;20392;-68
2024/03/27 02:13:07;;;;;;;10.90;5.57;;;;;;;;;;5114514;28;20440;-68
2024/03/27 02:15:32;;;;;;;10.68;5.38;;;;;;;;;;5114697;28;20027;-67
2024/03/27 02:17:58;;;;;;;12.73;5.68;;;;;;;;;;5114534;28;20342;-67
2024/03/27 02:20:42;;;;;;;16.92;5.70;;;;;;;;;;5113547;28;20055;-68
2024/03/27 02:23:16;;;;;;;9.73;5.35;;;;;;;;;;5103648;28;20046;-70
2024/03/27 02:26:02;;;;;;;16.63;5.47;;;;;;;;;;5093042;28;20016;-67
2024/03/27 02:28:27;;;;;;;;;;;;;;;;;;5094404;28;20027;-67
2024/03/27 02:30:53;;;;;;;7.87;4.70;;;;;;;;;;5093704;28;19904;-67
2024/03/27 02:33:19;;;;;;;7.68;5.18;;;;;;;;;;5093360;28;20050;-68
2024/03/27 02:35:44;;;;;;;12.70;4.75;;;;;;;;;;5093847;28;20496;-67
2024/03/27 02:38:09;;;;;;;10.18;5.28;;;;;;;;;;5093535;28;20030;-67
2024/03/27 02:40:35;;;;;;;14.38;5.03;;;;;;;;;;5093340;28;20024;-69
2024/03/27 02:43:00;;;;;;;9.10;4.78;;;;;;;;;;5093819;28;20030;-69
2024/03/27 02:45:26;;;;;;;12.00;5.05;;;;;;;;;;5093195;28;20027;-68
2024/03/27 02:47:51;;;;;;;10.13;5.20;;;;;;;;;;5104631;28;20111;-69
2024/03/27 02:50:16;;;;;;;9.40;5.35;;;;;;;;;;5113557;28;20019;-66
2024/03/27 02:52:43;;;;;;;12.57;5.43;;;;;;;;;;5113162;28;20031;-67
2024/03/27 02:55:08;;;;;;;13.63;5.53;;;;;;;;;;5113985;28;20403;-70
2024/03/27 02:57:34;;;;;;;11.82;5.30;;;;;;;;;;5112763;28;20039;-68
2024/03/27 02:59:59;;;;;;;10.70;5.20;;;;;;;;;;5112391;28;20051;-69
2024/03/27 03:02:24;;;;;;;12.15;6.28;;;;;;;;;;5113759;28;20448;-68
2024/03/27 03:04:50;;;;;;;11.90;5.68;;;;;;;;;;5113736;28;20114;-69
2024/03/27 03:07:15;;;;;;;10.10;5.25;;;;;;;;;;5112188;28;20108;-68
2024/03/27 03:09:40;;;;;;;10.82;6.05;;;;;;;;;;5113037;28;20041;-70
2024/03/27 03:12:06;;;;;;;11.52;5.80;;;;;;;;;;5104158;28;20027;-68
2024/03/27 03:14:31;;;;;;;13.73;5.93;;;;;;;;;;5093644;28;20032;-69
2024/03/27 03:16:57;;;;;;;15.85;6.20;;;;;;;;;;5093007;28;20020;-69
2024/03/27 03:19:22;;;;;;;13.57;5.30;;;;;;;;;;5091894;28;20044;-68
2024/03/27 03:21:47;;;;;;;18.10;5.80;;;;;;;;;;5093305;28;20077;-69
2024/03/27 03:24:13;;;;;;;13.10;6.70;;;;;;;;;;5093375;28;20370;-71
2024/03/27 03:26:38;;;;;;;12.57;5.95;;;;;;;;;;5093804;28;20081;-68
2024/03/27 03:29:04;;;;;;;14.23;6.47;;;;;;;;;;5092753;28;20023;-68
2024/03/27 03:31:29;;;;;;;10.90;6.05;;;;;;;;;;5092719;28;20020;-68
2024/03/27 03:33:55;;;;;;;11.05;5.82;;;;;;;;;;5091709;28;20031;-68
2024/03/27 03:36:20;;;;;;;11.65;5.95;;;;;;;;;;5092563;28;20096;-67
2024/03/27 03:38:46;;;;;;;14.43;6.00;;;;;;;;;;5093714;28;20119;-66
2024/03/27 03:41:13;;;;;;;10.63;5.68;;;;;;;;;;5091536;28;20028;-68
2024/03/27 03:43:39;;;;;;;10.52;5.60;;;;;;;;;;5092337;28;20048;-68
2024/03/27 03:46:04;;;;;;;8.90;5.57;;;;;;;;;;5092601;28;20067;-69
2024/03/27 03:48:30;;;;;;;7.95;4.60;;;;;;;;;;5092396;28;20035;-68
2024/03/27 03:50:56;;;;;;;11.50;5.25;;;;;;;;;;5092302;28;20505;-68
2024/03/27 03:53:21;;;;;;;13.60;5.13;;;;;;;;;;5091336;28;20124;-69
2024/03/27 03:55:47;;;;;;;8.95;4.63;;;;;;;;;;5091363;28;20032;-69
2024/03/27 03:58:13;;;;;;;10.68;5.45;;;;;;;;;;5091347;28;20051;-71
2024/03/27 04:00:38;;;;;;;13.77;5.95;;;;;;;;;;5092559;28;20036;-70
2024/03/27 04:03:04;;;;;;;10.25;5.88;;;;;;;;;;5092186;28;20031;-70
2024/03/27 04:05:30;;;;;;;15.35;7.85;;;;;;;;;;5092607;28;20078;-71
2024/03/27 04:07:55;;;;;;;9.35;7.65;;;;;;;;;;5092313;28;20374;-72
2024/03/27 04:10:21;;;;;;;12.32;7.30;;;;;;;;;;5095183;28;20351;-71
2024/03/27 04:12:46;;;;;;;12.52;8.13;;;;;;;;;;5096656;28;20016;-71
2024/03/27 04:15:12;;;;;;;11.65;8.77;;;;;;;;;;5096544;28;20046;-70
2024/03/27 04:17:37;;;;;;;13.70;8.40;;;;;;;;;;5096629;28;20427;-68
2024/03/27 04:20:10;;;;;;;14.70;8.20;;;;;;;;;;5096138;28;20136;-69
2024/03/27 04:22:36;;;;;;;13.63;9.10;;;;;;;;;;5096554;28;20034;-69
2024/03/27 04:25:01;;;;;;;16.20;8.32;;;;;;;;;;5096150;28;20024;-69
2024/03/27 04:27:27;;;;;;;16.50;6.22;;;;;;;;;;5096006;28;20446;-69
2024/03/27 04:29:53;;;;;;;13.57;5.47;;;;;;;;;;5095493;28;20028;-69
2024/03/27 04:32:18;;;;;;;18.52;7.32;;;;;;;;;;5110713;28;20023;-70
2024/03/27 04:34:44;;;;;;;26.90;24.48;;;;;;;;;;5115148;28;20015;-69
2024/03/27 04:37:09;;;;;;;1999.90;999.90;;;;;;;;;;5115786;28;20047;-68
2024/03/27 04:39:35;;;;;;;22.23;19.90;;;;;;;;;;5115907;28;20046;-71
2024/03/27 04:42:01;;;;;;;17.55;13.55;;;;;;;;;;5116311;28;20024;-72
2024/03/27 04:44:26;;;;;;;21.05;14.52;;;;;;;;;;5116005;28;20019;-73
2024/03/27 04:46:51;;;;;;;37.15;34.53;;;;;;;;;;5114956;28;20023;-72
2024/03/27 04:49:17;;;;;;;1999.90;999.90;;;;;;;;;;5115441;28;20386;-71
2024/03/27 04:51:42;;;;;;;1999.90;999.90;;;;;;;;;;5115788;27;20035;-67
2024/03/27 04:54:08;;;;;;;1999.90;999.90;;;;;;;;;;5114992;28;20105;-68
2024/03/27 04:56:33;;;;;;;37.70;34.90;;;;;;;;;;5115419;28;20039;-68
2024/03/27 04:58:58;;;;;;;36.92;34.35;;;;;;;;;;5113790;28;20042;-69
2024/03/27 05:01:24;;;;;;;21.77;19.75;;;;;;;;;;5116207;28;20030;-69
2024/03/27 05:03:49;;;;;;;15.60;14.05;;;;;;;;;;5115493;28;20023;-70
2024/03/27 05:06:15;;;;;;;22.58;20.88;;;;;;;;;;5107684;28;20107;-68
2024/03/27 05:08:40;;;;;;;10.32;8.82;;;;;;;;;;5095780;28;20123;-68
2024/03/27 05:11:06;;;;;;;9.68;8.77;;;;;;;;;;5095899;28;20095;-67
2024/03/27 05:13:31;;;;;;;10.30;4.70;;;;;;;;;;5094126;28;20078;-68
2024/03/27 05:15:56;;;;;;;9.32;3.72;;;;;;;;;;5095150;28;20419;-67
2024/03/27 05:18:22;;;;;;;10.18;3.42;;;;;;;;;;5094051;28;20081;-67
2024/03/27 05:20:48;;;;;;;10.32;3.80;;;;;;;;;;5093578;28;20469;-68
2024/03/27 05:23:13;;;;;;;8.95;3.60;;;;;;;;;;5094972;28;20020;-67
2024/03/27 05:25:39;;;;;;;14.30;4.32;;;;;;;;;;5095052;28;20016;-68
2024/03/27 05:28:04;;;;;;;9.63;4.28;;;;;;;;;;5094947;28;20112;-69
2024/03/27 05:30:30;;;;;;;12.20;4.55;;;;;;;;;;5094881;28;20031;-66
2024/03/27 05:32:56;;;;;;;9.18;4.30;;;;;;;;;;5094840;28;20055;-69
2024/03/27 05:35:21;;;;;;;11.73;4.40;;;;;;;;;;5094713;28;20410;-68
2024/03/27 05:37:47;;;;;;;17.15;4.30;;;;;;;;;;5095456;28;20019;-69
2024/03/27 05:40:13;;;;;;;8.27;3.45;;;;;;;;;;5096604;28;20032;-61
2024/03/27 05:42:38;;;;;;;10.70;4.15;;;;;;;;;;5096370;28;20059;-69
2024/03/27 05:45:04;;;;;;;11.07;3.55;;;;;;;;;;5076493;28;20016;-68
2024/03/27 05:47:29;;;;;;;10.23;3.15;;;;;;;;;;5094714;28;20731;-68
2024/03/27 05:49:55;;;;;;;13.73;3.30;;;;;;;;;;5093573;28;20177;-66
2024/03/27 05:52:20;;;;;;;8.63;3.17;;;;;;;;;;5094414;28;20016;-68
2024/03/27 05:54:45;;;;;;;8.57;3.03;;;;;;;;;;5114487;28;20054;-68
2024/03/27 05:57:11;;;;;;;7.30;3.58;;;;;;;;;;5114736;28;20477;-65
2024/03/27 05:59:36;;;;;;;11.68;2.85;;;;;;;;;;5113550;28;20434;-70
2024/03/27 06:02:02;;;;;;;7.60;2.83;;;;;;;;;;5114903;28;20035;-68
2024/03/27 06:04:27;;;;;;;10.13;2.30;;;;;;;;;;5114466;28;20068;-67
2024/03/27 06:06:52;;;;;;;6.20;2.57;;;;;;;;;;5114467;28;20037;-66
2024/03/27 06:09:19;;;;;;;9.05;2.45;;;;;;;;;;5114401;28;20410;-67
2024/03/27 06:11:44;;;;;;;6.78;2.22;;;;;;;;;;5109316;28;20099;-65
2024/03/27 06:14:09;;;;;;;8.15;2.13;;;;;;;;;;5092741;28;20473;-67
2024/03/27 06:16:35;;;;;;;6.13;2.25;;;;;;;;;;5093736;28;20027;-69
2024/03/27 06:19:00;;;;;;;10.63;2.33;;;;;;;;;;5108074;28;20115;-70
2024/03/27 06:21:25;;;;;;;5.65;2.33;;;;;;;;;;5114297;28;20244;-70
2024/03/27 06:23:51;;;;;;;8.32;2.20;;;;;;;;;;5113777;28;20019;-70
2024/03/27 06:26:16;;;;;;;13.35;2.67;;;;;;;;;;5114295;28;20083;-68
2024/03/27 06:28:42;;;;;;;6.77;2.10;;;;;;;;;;5094403;28;20083;-68
2024/03/27 06:31:08;;;;;;;8.73;2.50;;;;;;;;;;5093657;28;20252;-70
2024/03/27 06:33:34;;;;;;;13.90;2.67;;;;;;;;;;5092716;28;20022;-70
2024/03/27 06:35:59;;;;;;;8.82;2.65;;;;;;;;;;5092930;28;20020;-69
2024/03/27 06:38:25;;;;;;;7.25;1.98;;;;;;;;;;5093389;28;20110;-68
2024/03/27 06:40:50;;;;;;;5.20;2.08;;;;;;;;;;5093241;28;20027;-69
2024/03/27 06:43:16;;;;;;;3.65;1.85;;;;;;;;;;5093469;28;20020;-63
2024/03/27 06:45:42;;;;;;;6.28;2.13;;;;;;;;;;5093918;28;20024;-68
2024/03/27 06:48:08;;;;;;;4.95;2.00;;;;;;;;;;5093526;28;20020;-70
2024/03/27 06:50:33;;;;;;;6.50;2.25;;;;;;;;;;5093210;28;20125;-68
2024/03/27 06:52:58;;;;;;;7.22;2.63;;;;;;;;;;5108642;28;20132;-69
2024/03/27 06:55:31;;;;;;;11.90;2.50;;;;;;;;;;5070009;28;20773;-70
2024/03/27 06:57:56;;;;;;;12.60;2.53;;;;;;;;;;5069681;28;20495;-68
2024/03/27 07:00:22;;;;;;;7.00;2.13;;;;;;;;;;5069563;28;20021;-70
2024/03/27 07:02:48;;;;;;;8.98;2.28;;;;;;;;;;5069588;28;20696;-68
2024/03/27 07:05:13;;;;;;;9.02;2.63;;;;;;;;;;5069824;28;20028;-69
2024/03/27 07:07:39;;;;;;;9.88;2.28;;;;;;;;;;5069141;28;20032;-69
2024/03/27 07:10:05;;;;;;;7.63;2.30;;;;;;;;;;5069049;28;20403;-70
2024/03/27 07:12:30;;;;;;;8.82;1.90;;;;;;;;;;5069288;28;20029;-69
2024/03/27 07:14:55;;;;;;;9.05;2.90;;;;;;;;;;5069300;28;20040;-68
2024/03/27 07:17:21;;;;;;;4.97;1.80;;;;;;;;;;5069188;28;20025;-69
2024/03/27 07:19:48;;;;;;;7.18;1.80;;;;;;;;;;5068159;28;20117;-69
2024/03/27 07:22:16;;;;;;;5.95;1.95;;;;;;;;;;5069254;28;20044;-69
2024/03/27 07:24:42;;;;;;;6.28;1.92;;;;;;;;;;5069392;28;20082;-69
2024/03/27 07:27:07;;;;;;;5.13;2.00;;;;;;;;;;5068773;28;20495;-70
2024/03/27 07:29:35;;;;;;;4.90;2.30;;;;;;;;;;5068950;28;20162;-69
2024/03/27 07:32:03;;;;;;;5.47;2.10;;;;;;;;;;5068465;28;20278;-68
2024/03/27 07:34:29;;;;;;;3.72;1.80;;;;;;;;;;5051495;28;20044;-69
2024/03/27 07:36:54;;;;;;;4.87;1.80;;;;;;;;;;5048984;28;20352;-68
2024/03/27 07:39:20;;;;;;;5.07;1.98;;;;;;;;;;5047623;28;20392;-67
2024/03/27 07:41:46;;;;;;;5.18;1.80;;;;;;;;;;5047383;28;20018;-69
2024/03/27 07:44:11;;;;;;;6.35;1.70;;;;;;;;;;5048350;28;20040;-72
2024/03/27 07:46:37;;;;;;;7.85;1.77;;;;;;;;;;5049115;28;20184;-72
2024/03/27 07:49:02;;;;;;;3.28;1.83;;;;;;;;;;5048751;28;20053;-71
2024/03/27 07:51:28;;;;;;;5.05;1.90;;;;;;;;;;5031248;28;20108;-72
2024/03/27 07:53:53;;;;;;;4.83;1.60;;;;;;;;;;5044660;28;20059;-69
2024/03/27 07:56:19;;;;;;;4.43;1.80;;;;;;;;;;5047419;28;20278;-67
2024/03/27 07:58:44;;;;;;;6.65;1.90;;;;;;;;;;5047377;28;20083;-71
2024/03/27 08:01:09;;;;;;;5.67;2.00;;;;;;;;;;5048495;28;20083;-72
2024/03/27 08:03:35;;;;;;;4.78;1.70;;;;;;;;;;5048055;28;20261;-72
2024/03/27 08:06:02;;;;;;;4.47;1.73;;;;;;;;;;5026347;28;20480;-71
2024/03/27 08:08:27;;;;;;;6.35;1.80;;;;;;;;;;5015232;28;20113;-72
2024/03/27 08:10:59;;;;;;;4.32;1.83;;;;;;;;;;5033906;28;20116;-73
2024/03/27 08:13:25;;;;;;;10.57;2.10;;;;;;;;;;5035349;28;20532;-72
2024/03/27 08:15:50;;;;;;;5.65;1.63;;;;;;;;;;5035206;28;20088;-68
2024/03/27 08:18:16;;;;;;;11.52;2.30;;;;;;;;;;5034679;28;20025;-65
2024/03/27 08:20:41;;;;;;;6.63;1.85;;;;;;;;;;5032069;28;20076;-65
2024/03/27 08:23:07;;;;;;;12.27;2.22;;;;;;;;;;5036838;28;20053;-65
2024/03/27 08:25:34;;;;;;;9.25;2.28;;;;;;;;;;5033107;28;20112;-69
2024/03/27 08:27:59;;;;;;;5.47;1.80;;;;;;;;;;5031209;28;20471;-69
2024/03/27 08:30:25;;;;;;;5.15;2.15;;;;;;;;;;5034363;28;20068;-66
2024/03/27 08:32:50;;;;;;;13.57;2.47;;;;;;;;;;5034288;28;20014;-64
2024/03/27 08:35:16;;;;;;;8.43;2.40;;;;;;;;;;5033748;28;20076;-68
2024/03/27 08:37:42;;;;;;;16.40;3.03;;;;;;;;;;5032695;28;20637;-66
2024/03/27 08:40:09;;;;;;;11.30;1.90;;;;;;;;;;5033925;28;20025;-70
2024/03/27 08:42:35;;;;;;;4.72;1.55;;;;;;;;;;5034095;28;20049;-69
2024/03/27 08:45:00;;;;;;;4.57;1.42;;;;;;;;;;5034049;28;20049;-70
2024/03/27 08:47:27;;;;;;;9.52;1.70;;;;;;;;;;5034016;28;20120;-69
2024/03/27 08:49:53;;;;;;;6.38;1.90;;;;;;;;;;5034199;28;20030;-66
2024/03/27 08:52:18;;;;;;;9.70;2.28;;;;;;;;;;5033485;28;20025;-64
2024/03/27 08:54:44;;;;;;;5.30;1.80;;;;;;;;;;5033351;28;20141;-65
2024/03/27 08:57:09;;;;;;;6.82;2.00;;;;;;;;;;5033848;28;20467;-66
2024/03/27 08:59:35;;;;;;;6.78;2.22;;;;;;;;;;5034014;28;20033;-66
2024/03/27 09:02:01;;;;;;;12.30;2.45;;;;;;;;;;5032924;28;20033;-66
2024/03/27 09:04:27;;;;;;;11.35;2.20;;;;;;;;;;5032207;28;20037;-67
2024/03/27 09:06:52;;;;;;;7.68;2.10;;;;;;;;;;5034079;28;20074;-65
2024/03/27 09:09:18;;;;;;;5.35;2.10;;;;;;;;;;5033610;28;20029;-68
2024/03/27 09:11:43;;;;;;;6.30;2.40;;;;;;;;;;5033939;28;20374;-68
2024/03/27 09:14:08;;;;;;;5.10;2.15;;;;;;;;;;5031892;28;20069;-66
2024/03/27 09:16:34;;;;;;;9.00;2.13;;;;;;;;;;5031888;28;20018;-66
2024/03/27 09:18:59;;;;;;;8.35;2.60;;;;;;;;;;5032824;28;20451;-66
2024/03/27 09:21:25;;;;;;;8.20;2.22;;;;;;;;;;5032996;28;20021;-66
2024/03/27 09:23:50;;;;;;;6.70;2.50;;;;;;;;;;5031597;28;20036;-75
2024/03/27 09:26:15;;;;;;;6.63;2.33;;;;;;;;;;5032693;28;20032;-70
2024/03/27 09:28:41;;;;;;;6.25;1.88;;;;;;;;;;5031883;28;20048;-74
2024/03/27 09:31:07;;;;;;;8.23;2.38;;;;;;;;;;5031767;28;20027;-69
2024/03/27 09:33:32;;;;;;;8.23;2.35;;;;;;;;;;5031841;28;20043;-67
2024/03/27 09:35:58;;;;;;;16.60;2.25;;;;;;;;;;5032974;28;20336;-68
2024/03/27 09:38:23;;;;;;;11.27;2.28;;;;;;;;;;5032795;28;20436;-68
2024/03/27 09:40:54;;;;;;;6.47;2.38;;;;;;;;;;5032684;28;20021;-71
2024/03/27 09:43:20;;;;;;;3.70;1.85;;;;;;;;;;5032593;28;20104;-67
2024/03/27 09:45:46;;;;;;;7.00;2.15;;;;;;;;;;5033316;28;20177;-72
2024/03/27 09:48:13;;;;;;;9.60;2.20;;;;;;;;;;5032632;28;20029;-71
2024/03/27 09:50:38;;;;;;;7.40;2.03;;;;;;;;;;5031168;28;20128;-67
2024/03/27 09:53:04;;;;;;;6.22;1.90;;;;;;;;;;5030983;28;20109;-65
2024/03/27 09:55:30;;;;;;;5.47;2.22;;;;;;;;;;5032192;28;20060;-71
2024/03/27 09:57:58;;;;;;;6.75;2.17;;;;;;;;;;5030750;28;20460;-70
2024/03/27 10:00:24;;;;;;;9.27;2.65;;;;;;;;;;5031647;28;20029;-68
2024/03/27 10:02:50;;;;;;;8.57;2.30;;;;;;;;;;5032249;28;20032;-67
2024/03/27 10:05:17;;;;;;;8.52;2.60;;;;;;;;;;5032458;28;20025;-69
2024/03/27 10:07:43;;;;;;;6.30;2.10;;;;;;;;;;5032132;28;20017;-69
2024/03/27 10:10:08;;;;;;;3.22;1.63;;;;;;;;;;5031482;28;20160;-72
2024/03/27 10:12:33;;;;;;;3.47;1.70;;;;;;;;;;5032446;28;20024;-71
2024/03/27 10:14:59;;;;;;;5.80;2.00;;;;;;;;;;5032632;28;20044;-71
2024/03/27 10:17:24;;;;;;;6.65;1.83;;;;;;;;;;5015809;28;20024;-74
2024/03/27 10:19:50;;;;;;;11.45;2.15;;;;;;;;;;5031675;28;20051;-74
2024/03/27 10:22:15;;;;;;;9.80;2.20;;;;;;;;;;5032538;28;20473;-73
2024/03/27 10:24:42;;;;;;;12.02;2.33;;;;;;;;;;5030726;28;20025;-73
2024/03/27 10:27:07;;;;;;;3.63;1.90;;;;;;;;;;5031922;28;20440;-72
2024/03/27 10:29:33;;;;;;;8.38;2.05;;;;;;;;;;5031736;28;20036;-72
2024/03/27 10:32:01;;;;;;;3.83;1.70;;;;;;;;;;5030518;28;20107;-72
2024/03/27 10:34:26;;;;;;;5.30;2.17;;;;;;;;;;5031397;28;20068;-67
2024/03/27 10:36:51;;;;;;;6.63;1.95;;;;;;;;;;5032807;28;20061;-72
2024/03/27 10:39:17;;;;;;;8.10;1.85;;;;;;;;;;5032113;28;20021;-72
2024/03/27 10:41:42;;;;;;;7.25;2.08;;;;;;;;;;5031319;28;20584;-73
2024/03/27 10:44:10;;;;;;;6.00;1.80;;;;;;;;;;5031625;28;20091;-73
2024/03/27 10:46:36;;;;;;;5.95;2.60;;;;;;;;;;5030800;28;20061;-71
2024/03/27 10:49:03;;;;;;;6.22;2.00;;;;;;;;;;5032062;28;20036;-73
2024/03/27 10:51:29;;;;;;;7.60;2.00;;;;;;;;;;5031769;28;20041;-73
2024/03/27 10:53:55;;;;;;;11.25;1.95;;;;;;;;;;5032379;28;20436;-71
2024/03/27 10:56:21;;;;;;;9.10;2.28;;;;;;;;;;5030264;28;20425;-72
2024/03/27 10:58:47;;;;;;;9.18;2.65;;;;;;;;;;5031984;28;20098;-70
2024/03/27 11:01:13;;;;;;;7.43;2.00;;;;;;;;;;5031618;28;20169;-70
2024/03/27 11:03:41;;;;;;;6.40;1.88;;;;;;;;;;5031190;28;20021;-70
2024/03/27 11:06:08;;;;;;;5.50;2.22;;;;;;;;;;5032123;28;20053;-66
2024/03/27 11:08:35;;;;;;;7.65;1.95;;;;;;;;;;5032373;28;20037;-66
2024/03/27 11:11:04;;;;;;;6.40;1.65;;;;;;;;;;5029684;28;20025;-66
2024/03/27 11:13:30;;;;;;;5.20;1.88;;;;;;;;;;5032276;28;20017;-67
2024/03/27 11:15:55;;;;;;;7.53;1.65;;;;;;;;;;5032321;28;20041;-66
2024/03/27 11:18:21;;;;;;;6.80;1.63;;;;;;;;;;5031081;28;20029;-66
2024/03/27 11:20:50;;;;;;;8.48;1.63;;;;;;;;;;5031481;28;20069;-65
2024/03/27 11:23:15;;;;;;;6.95;1.90;;;;;;;;;;5031644;28;20028;-67
2024/03/27 11:25:51;;;;;;;5.75;2.00;;;;;;;;;;5030853;28;20021;-66
2024/03/27 11:28:17;;;;;;;3.30;1.50;;;;;;;;;;5031657;28;20020;-65
2024/03/27 11:30:44;;;;;;;5.30;1.42;;;;;;;;;;5031105;28;20033;-66
2024/03/27 11:33:10;;;;;;;5.25;1.70;;;;;;;;;;5031732;28;20032;-66
2024/03/27 11:35:36;;;;;;;5.53;1.50;;;;;;;;;;5031641;28;20037;-65
2024/03/27 11:38:02;;;;;;;8.25;1.83;;;;;;;;;;5030438;28;20020;-65
2024/03/27 11:40:27;;;;;;;8.38;2.28;;;;;;;;;;5032045;28;20021;-66
2024/03/27 11:42:53;;;;;;;5.68;1.60;;;;;;;;;;5035165;28;20087;-66
2024/03/27 11:45:18;;;;;;;11.15;2.15;;;;;;;;;;5035078;28;20095;-66
2024/03/27 11:47:45;;;;;;;6.55;1.70;;;;;;;;;;5034659;28;20037;-66
2024/03/27 11:50:10;;;;;;;5.03;1.80;;;;;;;;;;5017617;28;20407;-66
2024/03/27 11:52:36;;;;;;;6.95;1.95;;;;;;;;;;5035020;28;20091;-65
2024/03/27 11:55:01;;;;;;;6.13;1.70;;;;;;;;;;5034794;28;20499;-65
2024/03/27 11:57:29;;;;;;;5.53;1.77;;;;;;;;;;5035063;28;20116;-66
2024/03/27 12:00:03;;;;;;;5.10;1.40;;;;;;;;;;5035048;28;20083;-66
2024/03/27 12:02:31;;;;;;;4.18;1.55;;;;;;;;;;5035492;28;20028;-67
2024/03/27 12:04:59;;;;;;;5.88;1.55;;;;;;;;;;5034458;28;20029;-67
2024/03/27 12:07:24;;;;;;;2.75;1.23;;;;;;;;;;5033541;28;20029;-66
2024/03/27 12:09:50;;;;;;;6.13;1.38;;;;;;;;;;5033631;28;20083;-66
2024/03/27 12:12:19;;;;;;;3.30;1.55;;;;;;;;;;5016846;28;20036;-65
2024/03/27 12:14:44;;;;;;;7.00;1.67;;;;;;;;;;5033801;28;20512;-65
2024/03/27 12:17:13;;;;;;;5.00;1.30;;;;;;;;;;5033853;28;20114;-66
2024/03/27 12:19:38;;;;;;;7.47;2.17;;;;;;;;;;5032794;28;20014;-66
2024/03/27 12:22:04;;;;;;;4.40;1.80;;;;;;;;;;5034163;28;20029;-66
2024/03/27 12:24:29;;;;;;;7.10;1.60;;;;;;;;;;5033784;28;20068;-74
2024/03/27 12:26:58;;;;;;;5.35;1.67;;;;;;;;;;5033115;28;20049;-74
2024/03/27 12:29:23;;;;;;;3.67;1.40;;;;;;;;;;5034000;28;20083;-66
2024/03/27 12:31:49;;;;;;;8.90;1.88;;;;;;;;;;5022525;28;20033;-62
2024/03/27 12:34:14;;;;;;;4.47;1.55;;;;;;;;;;5024681;28;20029;-65
2024/03/27 12:36:40;;;;;;;7.85;2.00;;;;;;;;;;5021893;28;20033;-64
2024/03/27 12:39:05;;;;;;;5.38;1.50;;;;;;;;;;5034197;28;20064;-66
2024/03/27 12:41:31;;;;;;;4.50;1.83;;;;;;;;;;5033535;28;20164;-65
2024/03/27 12:43:56;;;;;;;9.25;1.98;;;;;;;;;;5027583;28;20036;-65
2024/03/27 12:46:22;;;;;;;7.70;1.67;;;;;;;;;;5033626;28;20474;-69
2024/03/27 12:48:47;;;;;;;5.80;1.80;;;;;;;;;;5020956;28;20021;-66
2024/03/27 12:51:12;;;;;;;3.55;1.27;;;;;;;;;;5033959;28;20745;-67
2024/03/27 12:53:38;;;;;;;7.97;1.85;;;;;;;;;;5032047;28;20068;-67
2024/03/27 12:56:04;;;;;;;5.68;1.50;;;;;;;;;;5032744;28;20034;-66
2024/03/27 12:58:30;;;;;;;5.13;1.40;;;;;;;;;;5032896;28;20432;-69
2024/03/27 13:00:56;;;;;;;4.70;1.58;;;;;;;;;;5032616;28;20129;-65
2024/03/27 13:03:21;;;;;;;8.10;1.45;;;;;;;;;;5033959;28;20118;-64
2024/03/27 13:05:47;;;;;;;5.55;1.45;;;;;;;;;;5033524;28;20100;-64
2024/03/27 13:08:13;;;;;;;4.75;1.60;;;;;;;;;;5030768;28;20420;-67
2024/03/27 13:10:38;;;;;;;3.13;1.50;;;;;;;;;;5032432;28;20029;-65
2024/03/27 13:13:05;;;;;;;3.53;1.50;;;;;;;;;;5031227;28;20065;-68
2024/03/27 13:15:30;;;;;;;5.90;1.63;;;;;;;;;;5029036;28;20048;-65
2024/03/27 13:17:56;;;;;;;9.48;2.00;;;;;;;;;;5031286;28;20356;-68
2024/03/27 13:20:21;;;;;;;10.93;2.53;;;;;;;;;;5032112;28;20041;-66
2024/03/27 13:22:47;;;;;;;7.90;1.88;;;;;;;;;;5032325;28;20022;-65
2024/03/27 13:25:13;;;;;;;5.50;1.80;;;;;;;;;;5032214;28;20025;-68
2024/03/27 13:27:39;;;;;;;8.35;1.80;;;;;;;;;;5030992;28;20021;-69
2024/03/27 13:30:05;;;;;;;4.05;1.50;;;;;;;;;;5031654;28;20036;-68
2024/03/27 13:32:31;;;;;;;3.33;1.40;;;;;;;;;;5030732;28;20025;-65
2024/03/27 13:34:57;;;;;;;7.70;1.83;;;;;;;;;;5030464;28;20126;-70
2024/03/27 13:37:22;;;;;;;3.47;1.40;;;;;;;;;;5030766;28;20032;-72
2024/03/27 13:39:48;;;;;;;4.72;1.60;;;;;;;;;;5032053;28;20025;-68
2024/03/27 13:42:13;;;;;;;10.82;1.50;;;;;;;;;;5025650;28;20033;-69
2024/03/27 13:44:38;;;;;;;6.43;1.50;;;;;;;;;;5032943;28;20345;-70
2024/03/27 13:47:04;;;;;;;7.00;1.75;;;;;;;;;;5021946;28;20344;-68
2024/03/27 13:49:29;;;;;;;8.60;1.92;;;;;;;;;;5031655;28;20208;-70
2024/03/27 13:51:55;;;;;;;10.30;1.90;;;;;;;;;;5031429;28;20052;-66
2024/03/27 13:54:20;;;;;;;11.75;1.60;;;;;;;;;;5013867;28;20061;-69
2024/03/27 13:56:46;;;;;;;10.10;1.83;;;;;;;;;;5030489;28;20032;-70
2024/03/27 13:59:11;;;;;;;7.68;1.40;;;;;;;;;;5028404;28;20025;-66
2024/03/27 14:01:36;;;;;;;6.80;1.83;;;;;;;;;;5031800;28;20025;-65
2024/03/27 14:04:02;;;;;;;4.18;1.42;;;;;;;;;;5031575;28;20523;-66
2024/03/27 14:06:27;;;;;;;4.80;1.40;;;;;;;;;;5032155;28;20026;-68
2024/03/27 14:08:53;;;;;;;6.55;1.75;;;;;;;;;;5016148;28;20028;-72
2024/03/27 14:11:18;;;;;;;7.47;1.52;;;;;;;;;;5011731;28;20114;-73
2024/03/27 14:13:44;;;;;;;4.85;1.45;;;;;;;;;;5028660;28;20356;-73
2024/03/27 14:16:09;;;;;;;4.35;1.60;;;;;;;;;;5029791;28;20040;-72
2024/03/27 14:18:34;;;;;;;5.18;1.80;;;;;;;;;;5030291;28;20033;-72
2024/03/27 14:21:00;;;;;;;9.40;2.13;;;;;;;;;;5031049;28;20037;-73
2024/03/27 14:23:25;;;;;;;9.45;1.80;;;;;;;;;;5030103;28;20022;-73
2024/03/27 14:25:51;;;;;;;10.77;2.22;;;;;;;;;;5031584;28;20653;-73
2024/03/27 14:28:17;;;;;;;8.45;1.75;;;;;;;;;;5031343;28;20064;-72